createdAt,value
2022-09-29T00:01:58.997Z,12.43
2022-09-29T00:04:31.226Z,12.50
2022-09-29T00:07:03.114Z,14.60
2022-09-29T00:09:35.147Z,12.53
2022-09-29T00:12:06.989Z,13.00
2022-09-29T00:14:38.895Z,14.10
2022-09-29T00:17:10.806Z,13.07
2022-09-29T00:19:42.814Z,12.20
2022-09-29T00:22:14.752Z,11.17
2022-09-29T00:24:47.305Z,11.80
2022-09-29T00:27:19.248Z,13.00
2022-09-29T00:29:51.192Z,11.90
2022-09-29T00:32:23.011Z,11.30
2022-09-29T00:34:54.908Z,11.50
2022-09-29T00:37:26.771Z,11.40
2022-09-29T00:39:58.751Z,12.07
2022-09-29T00:42:32.655Z,10.73
2022-09-29T00:45:04.579Z,12.60
2022-09-29T00:47:37.635Z,11.43
2022-09-29T00:50:22.785Z,13.17
2022-09-29T00:52:57.803Z,12.43
2022-09-29T00:55:37.149Z,12.10
2022-09-29T00:58:16.758Z,13.03
2022-09-29T01:00:49.701Z,13.03
2022-09-29T01:03:24.132Z,12.27
2022-09-29T01:06:03.423Z,11.33
2022-09-29T01:09:02.285Z,12.53
2022-09-29T01:11:34.807Z,12.70
2022-09-29T01:14:08.609Z,13.20
2022-09-29T01:16:41.915Z,13.40
2022-09-29T01:19:21.130Z,12.90
2022-09-29T01:22:08.631Z,12.57
2022-09-29T01:24:42.948Z,12.07
2022-09-29T01:27:23.537Z,13.60
2022-09-29T01:30:14.758Z,12.60
2022-09-29T01:33:31.214Z,13.10
2022-09-29T01:36:25.516Z,12.93
2022-09-29T01:39:22.444Z,12.83
2022-09-29T01:42:07.182Z,12.80
2022-09-29T01:44:55.269Z,13.70
2022-09-29T01:47:29.980Z,13.03
2022-09-29T01:50:08.567Z,11.77
2022-09-29T01:52:47.244Z,11.63
2022-09-29T01:55:24.049Z,12.83
2022-09-29T01:58:00.899Z,15.10
2022-09-29T02:00:38.533Z,12.30
2022-09-29T02:03:25.214Z,14.20
2022-09-29T02:05:59.556Z,13.33
2022-09-29T02:08:43.440Z,12.10
2022-09-29T02:11:16.825Z,12.00
2022-09-29T02:14:20.509Z,12.70
2022-09-29T02:16:57.945Z,13.20
2022-09-29T02:19:32.039Z,13.60
2022-09-29T02:22:03.927Z,12.60
2022-09-29T02:24:36.461Z,12.87
2022-09-29T02:27:09.286Z,14.70
2022-09-29T02:29:41.351Z,12.73
2022-09-29T02:32:14.170Z,13.70
2022-09-29T02:34:47.581Z,12.57
2022-09-29T02:37:38.480Z,12.73
2022-09-29T02:40:59.990Z,11.97
2022-09-29T02:43:31.944Z,12.60
2022-09-29T02:46:34.137Z,14.00
2022-09-29T02:49:08.833Z,14.50
2022-09-29T02:51:45.190Z,13.77
2022-09-29T02:54:48.159Z,13.30
2022-09-29T02:57:24.822Z,12.20
2022-09-29T03:00:11.359Z,14.20
2022-09-29T03:02:44.249Z,12.53
2022-09-29T03:05:19.029Z,14.07
2022-09-29T03:07:50.912Z,13.30
2022-09-29T03:10:24.908Z,14.17
2022-09-29T03:12:59.954Z,15.43
2022-09-29T03:15:31.823Z,14.10
2022-09-29T03:18:09.359Z,14.07
2022-09-29T03:20:42.130Z,15.10
2022-09-29T03:23:14.063Z,14.60
2022-09-29T03:25:46.026Z,13.73
2022-09-29T03:28:19.064Z,13.70
2022-09-29T03:30:50.927Z,14.00
2022-09-29T03:33:23.062Z,15.57
2022-09-29T03:35:55.125Z,14.63
2022-09-29T03:38:27.079Z,15.30
2022-09-29T03:40:59.176Z,15.57
2022-09-29T03:43:31.105Z,17.20
2022-09-29T03:46:03.033Z,15.20
2022-09-29T03:48:35.385Z,13.90
2022-09-29T03:51:07.552Z,15.17
2022-09-29T03:53:39.399Z,15.70
2022-09-29T03:56:11.343Z,14.77
2022-09-29T03:58:43.289Z,16.23
2022-09-29T04:01:15.153Z,15.23
2022-09-29T04:03:47.166Z,14.83
2022-09-29T04:06:19.124Z,15.00
2022-09-29T04:08:51.116Z,16.33
2022-09-29T04:11:22.981Z,17.77
2022-09-29T04:13:54.947Z,15.93
2022-09-29T04:16:27.045Z,16.87
2022-09-29T04:18:59.023Z,16.67
2022-09-29T04:21:31.063Z,16.07
2022-09-29T04:24:03.012Z,16.10
2022-09-29T04:26:35.017Z,16.00
2022-09-29T04:29:07.218Z,14.77
2022-09-29T04:31:39.093Z,17.00
2022-09-29T04:34:11.099Z,17.43
2022-09-29T04:36:42.986Z,16.50
2022-09-29T04:39:15.123Z,17.90
2022-09-29T04:41:46.996Z,17.43
2022-09-29T04:44:24.804Z,19.03
2022-09-29T04:46:56.664Z,18.57
2022-09-29T04:49:28.623Z,19.07
2022-09-29T04:52:00.612Z,19.20
2022-09-29T04:54:38.095Z,19.13
2022-09-29T04:57:10.722Z,18.20
2022-09-29T04:59:42.581Z,19.23
2022-09-29T05:02:14.451Z,19.30
2022-09-29T05:04:47.611Z,18.87
2022-09-29T05:07:19.528Z,19.17
2022-09-29T05:09:51.452Z,20.10
2022-09-29T05:12:23.499Z,18.93
2022-09-29T05:14:55.373Z,19.93
2022-09-29T05:17:27.528Z,19.07
2022-09-29T05:19:59.464Z,17.80
2022-09-29T05:22:31.536Z,19.33
2022-09-29T05:25:03.493Z,18.07
2022-09-29T05:27:37.103Z,18.93
2022-09-29T05:30:12.659Z,18.43
2022-09-29T05:32:46.003Z,19.77
2022-09-29T05:35:18.182Z,19.20
2022-09-29T05:37:51.148Z,20.53
2022-09-29T05:40:26.330Z,19.73
2022-09-29T05:42:58.846Z,21.30
2022-09-29T05:45:30.831Z,21.20
2022-09-29T05:48:02.736Z,19.30
2022-09-29T05:50:41.732Z,20.60
2022-09-29T05:53:13.855Z,20.23
2022-09-29T05:55:45.759Z,19.67
2022-09-29T05:58:17.805Z,21.67
2022-09-29T06:00:49.765Z,20.07
2022-09-29T06:03:21.688Z,19.97
2022-09-29T06:05:53.853Z,20.37
2022-09-29T06:08:25.807Z,20.27
2022-09-29T06:11:06.784Z,21.27
2022-09-29T06:13:41.327Z,22.23
2022-09-29T06:16:14.462Z,20.57
2022-09-29T06:18:46.633Z,21.10
2022-09-29T06:21:24.209Z,20.40
2022-09-29T06:23:57.293Z,19.87
2022-09-29T06:26:29.665Z,20.97
2022-09-29T06:29:01.601Z,19.90
2022-09-29T06:31:33.532Z,19.30
2022-09-29T06:34:05.989Z,20.53
2022-09-29T06:37:01.119Z,20.10
2022-09-29T06:39:33.120Z,20.70
2022-09-29T06:42:05.420Z,18.40
2022-09-29T06:44:37.297Z,20.10
2022-09-29T06:47:09.518Z,20.53
2022-09-29T06:49:43.455Z,18.13
2022-09-29T06:52:29.161Z,18.67
2022-09-29T06:55:02.000Z,18.37
2022-09-29T06:57:33.883Z,16.90
2022-09-29T07:00:07.269Z,18.17
2022-09-29T07:02:39.255Z,17.53
2022-09-29T07:05:11.419Z,17.47
2022-09-29T07:07:43.474Z,18.30
2022-09-29T07:10:15.923Z,19.20
2022-09-29T07:12:47.848Z,17.93
2022-09-29T07:15:19.794Z,18.40
2022-09-29T07:17:52.364Z,17.13
2022-09-29T07:20:24.512Z,18.47
2022-09-29T07:22:56.610Z,18.13
2022-09-29T07:25:50.544Z,17.70
2022-09-29T07:28:20.804Z,17.90
2022-09-29T07:31:14.776Z,17.80
2022-09-29T07:33:50.112Z,17.33
2022-09-29T07:36:22.315Z,18.27
2022-09-29T07:38:54.270Z,16.23
2022-09-29T07:41:26.274Z,16.70
2022-09-29T07:43:58.252Z,17.43
2022-09-29T07:46:30.246Z,17.10
2022-09-29T07:49:02.564Z,17.00
2022-09-29T07:51:34.814Z,18.63
2022-09-29T07:54:06.927Z,19.13
2022-09-29T07:56:39.002Z,18.80
2022-09-29T07:59:11.597Z,19.07
2022-09-29T08:01:43.478Z,18.63
2022-09-29T08:04:15.404Z,20.30
2022-09-29T08:06:47.683Z,19.33
2022-09-29T08:09:20.057Z,21.23
2022-09-29T08:12:04.678Z,20.53
2022-09-29T08:14:43.963Z,20.40
2022-09-29T08:17:16.206Z,19.00
2022-09-29T08:19:48.353Z,17.43
2022-09-29T08:22:20.215Z,18.20
2022-09-29T08:24:52.098Z,19.40
2022-09-29T08:27:24.086Z,17.87
2022-09-29T08:29:57.076Z,17.57
2022-09-29T08:32:28.976Z,17.97
2022-09-29T08:35:01.319Z,16.93
2022-09-29T08:37:35.196Z,19.80
2022-09-29T08:40:08.668Z,17.63
2022-09-29T08:42:49.453Z,16.77
2022-09-29T08:45:30.911Z,18.60
2022-09-29T08:48:33.320Z,18.10
2022-09-29T08:51:16.385Z,17.33
2022-09-29T08:54:01.652Z,16.53
2022-09-29T08:56:35.576Z,18.13
2022-09-29T08:59:10.814Z,16.83
2022-09-29T09:02:01.373Z,16.20
2022-09-29T09:04:33.993Z,19.70
2022-09-29T09:07:14.940Z,17.73
2022-09-29T09:10:11.316Z,16.70
2022-09-29T09:12:58.163Z,17.33
2022-09-29T09:15:58.736Z,17.77
2022-09-29T09:18:40.152Z,18.53
2022-09-29T09:21:21.781Z,18.10
2022-09-29T09:24:00.522Z,18.93
2022-09-29T09:26:39.023Z,19.33
2022-09-29T09:29:19.514Z,18.47
2022-09-29T09:32:02.234Z,19.20
2022-09-29T09:34:44.357Z,18.97
2022-09-29T09:37:20.791Z,18.00
2022-09-29T09:40:00.474Z,18.17
2022-09-29T09:42:35.600Z,19.10
2022-09-29T09:45:30.869Z,19.33
2022-09-29T09:48:30.798Z,17.77
2022-09-29T09:51:23.078Z,17.83
2022-09-29T09:53:56.892Z,17.20
2022-09-29T09:56:36.041Z,17.50
2022-09-29T09:59:57.391Z,17.63
2022-09-29T10:02:30.277Z,16.60
2022-09-29T10:05:04.144Z,15.70
2022-09-29T10:07:38.285Z,17.70
2022-09-29T10:10:24.144Z,15.87
2022-09-29T10:13:08.728Z,15.30
2022-09-29T10:15:49.287Z,16.50
2022-09-29T10:18:25.707Z,17.33
2022-09-29T10:20:57.922Z,15.90
2022-09-29T10:23:31.357Z,14.63
2022-09-29T10:26:15.403Z,15.60
2022-09-29T10:29:01.161Z,14.27
2022-09-29T10:31:35.160Z,14.50
2022-09-29T10:34:15.547Z,15.47
2022-09-29T10:37:00.595Z,15.40
2022-09-29T10:39:32.498Z,13.93
2022-09-29T10:42:05.242Z,13.57
2022-09-29T10:44:39.063Z,13.20
2022-09-29T10:47:17.129Z,13.50
2022-09-29T10:50:08.148Z,13.80
2022-09-29T10:52:44.074Z,14.10
2022-09-29T10:55:33.140Z,12.23
2022-09-29T10:58:37.542Z,10.97
2022-09-29T11:01:14.453Z,11.40
2022-09-29T11:03:53.069Z,12.27
2022-09-29T11:06:34.246Z,13.00
2022-09-29T11:09:18.349Z,11.53
2022-09-29T11:12:00.736Z,11.60
2022-09-29T11:14:37.257Z,11.53
2022-09-29T11:17:31.386Z,10.77
2022-09-29T11:20:06.086Z,13.23
2022-09-29T11:23:16.812Z,13.97
2022-09-29T11:26:03.312Z,12.03
2022-09-29T11:28:37.753Z,13.30
2022-09-29T11:31:18.750Z,12.20
2022-09-29T11:34:27.010Z,11.40
2022-09-29T11:37:14.146Z,13.43
2022-09-29T11:39:50.831Z,12.43
2022-09-29T11:42:45.762Z,13.90
2022-09-29T11:45:22.971Z,15.03
2022-09-29T11:47:54.788Z,13.17
2022-09-29T11:50:38.563Z,14.73
2022-09-29T11:53:43.306Z,13.93
2022-09-29T11:56:24.227Z,13.87
2022-09-29T11:58:59.728Z,14.77
2022-09-29T12:01:48.528Z,14.53
2022-09-29T12:04:42.220Z,13.57
2022-09-29T12:07:16.786Z,14.47
2022-09-29T12:10:16.115Z,14.27
2022-09-29T12:12:56.989Z,14.53
2022-09-29T12:15:51.110Z,14.50
2022-09-29T12:18:27.569Z,13.23
2022-09-29T12:21:00.675Z,15.53
2022-09-29T12:23:37.982Z,12.77
2022-09-29T12:26:20.024Z,13.57
2022-09-29T12:28:59.842Z,13.60
2022-09-29T12:31:37.664Z,14.37
2022-09-29T12:34:42.126Z,14.03
2022-09-29T12:37:27.514Z,14.33
2022-09-29T12:40:03.517Z,15.60
2022-09-29T12:42:35.271Z,15.43
2022-09-29T12:45:35.354Z,14.80
2022-09-29T12:48:33.730Z,15.73
2022-09-29T12:51:23.656Z,12.77
2022-09-29T12:54:09.997Z,11.57
2022-09-29T12:56:50.805Z,11.67
2022-09-29T12:59:33.702Z,9.80
2022-09-29T13:02:19.370Z,10.20
2022-09-29T13:05:01.774Z,9.20
2022-09-29T13:07:51.089Z,10.87
2022-09-29T13:10:34.645Z,10.00
2022-09-29T13:13:48.031Z,9.83
2022-09-29T13:16:56.779Z,11.53
2022-09-29T13:19:57.192Z,10.63
2022-09-29T13:23:11.804Z,11.83
2022-09-29T13:26:01.885Z,11.17
2022-09-29T13:28:41.605Z,12.33
2022-09-29T13:31:16.823Z,11.50
2022-09-29T13:33:51.856Z,13.17
2022-09-29T13:36:29.164Z,12.90
2022-09-29T13:39:01.912Z,12.07
2022-09-29T13:41:39.587Z,12.73
2022-09-29T13:44:17.840Z,12.67
2022-09-29T13:46:50.789Z,12.60
2022-09-29T13:49:26.121Z,13.53
2022-09-29T13:52:16.537Z,13.07
2022-09-29T13:54:48.447Z,13.70
2022-09-29T13:57:28.099Z,13.53
2022-09-29T14:00:02.281Z,13.30
2022-09-29T14:02:47.284Z,13.13
2022-09-29T14:05:24.938Z,14.23
2022-09-29T14:07:57.383Z,13.83
2022-09-29T14:10:34.877Z,15.10
2022-09-29T14:13:12.886Z,16.13
2022-09-29T14:15:52.079Z,13.50
2022-09-29T14:18:46.532Z,17.67
2022-09-29T14:21:52.210Z,14.83
2022-09-29T14:24:42.194Z,15.70
2022-09-29T14:27:14.427Z,14.30
2022-09-29T14:30:09.490Z,16.20
2022-09-29T14:32:45.750Z,15.70
2022-09-29T14:35:28.508Z,12.90
2022-09-29T14:38:13.924Z,15.30
2022-09-29T14:41:18.640Z,13.43
2022-09-29T14:43:57.866Z,13.90
2022-09-29T14:46:54.173Z,12.57
2022-09-29T14:50:15.991Z,14.50
2022-09-29T14:53:30.716Z,14.50
2022-09-29T14:56:30.081Z,12.90
2022-09-29T14:59:21.174Z,13.40
2022-09-29T15:02:18.597Z,14.30
2022-09-29T15:04:51.514Z,13.47
2022-09-29T15:07:26.312Z,13.13
2022-09-29T15:09:59.953Z,14.93
2022-09-29T15:12:32.564Z,13.37
2022-09-29T15:15:04.870Z,14.27
2022-09-29T15:17:51.963Z,15.97
2022-09-29T15:20:56.040Z,15.17
2022-09-29T15:24:09.314Z,14.00
2022-09-29T15:26:42.065Z,15.40
2022-09-29T15:29:17.864Z,15.07
2022-09-29T15:31:50.059Z,13.33
2022-09-29T15:34:25.352Z,15.20
2022-09-29T15:36:58.234Z,13.33
2022-09-29T15:39:38.995Z,14.03
2022-09-29T15:42:15.397Z,12.83
2022-09-29T15:44:59.040Z,13.57
2022-09-29T15:47:40.388Z,14.23
2022-09-29T15:50:18.232Z,12.67
2022-09-29T15:52:50.621Z,11.30
2022-09-29T15:55:24.361Z,12.17
2022-09-29T15:58:00.000Z,12.40
2022-09-29T16:00:37.930Z,12.87
2022-09-29T16:03:27.457Z,14.10
2022-09-29T16:06:04.639Z,12.03
2022-09-29T16:08:44.231Z,13.37
2022-09-29T16:11:20.698Z,13.70
2022-09-29T16:13:58.945Z,12.83
2022-09-29T16:16:36.339Z,13.17
2022-09-29T16:19:30.552Z,13.93
2022-09-29T16:22:08.625Z,13.40
2022-09-29T16:24:53.450Z,14.60
2022-09-29T16:27:42.930Z,12.90
2022-09-29T16:30:23.605Z,13.80
2022-09-29T16:33:15.763Z,13.33
2022-09-29T16:35:55.343Z,13.27
2022-09-29T16:38:55.023Z,13.57
2022-09-29T16:41:40.974Z,13.70
2022-09-29T16:44:19.590Z,13.73
2022-09-29T16:47:02.626Z,13.03
2022-09-29T16:49:49.374Z,13.47
2022-09-29T16:52:29.074Z,13.40
2022-09-29T16:55:27.909Z,13.73
2022-09-29T16:58:05.958Z,13.97
2022-09-29T17:00:38.023Z,14.83
2022-09-29T17:03:10.188Z,14.90
2022-09-29T17:05:47.477Z,15.23
2022-09-29T17:08:27.506Z,17.20
2022-09-29T17:10:59.348Z,14.90
2022-09-29T17:13:34.325Z,15.77
2022-09-29T17:16:10.113Z,15.30
2022-09-29T17:18:42.124Z,15.63
2022-09-29T17:21:14.397Z,14.73
2022-09-29T17:23:46.790Z,15.03
2022-09-29T17:26:45.169Z,15.27
2022-09-29T17:29:17.111Z,14.63
2022-09-29T17:31:49.154Z,13.80
2022-09-29T17:34:29.801Z,16.03
2022-09-29T17:37:03.107Z,14.17
2022-09-29T17:39:35.212Z,14.37
2022-09-29T17:42:07.607Z,14.20
2022-09-29T17:44:42.433Z,14.30
2022-09-29T17:47:27.867Z,15.20
2022-09-29T17:50:18.252Z,14.00
2022-09-29T17:52:50.620Z,14.27
2022-09-29T17:55:23.402Z,14.27
2022-09-29T17:57:55.514Z,14.13
2022-09-29T18:00:33.391Z,13.27
2022-09-29T18:03:09.511Z,13.60
2022-09-29T18:05:44.715Z,13.27
2022-09-29T18:08:18.090Z,13.13
2022-09-29T18:10:52.866Z,13.17
2022-09-29T18:13:27.416Z,12.23
2022-09-29T18:16:00.799Z,12.77
2022-09-29T18:18:35.145Z,12.60
2022-09-29T18:21:07.799Z,13.87
2022-09-29T18:23:39.839Z,13.70
2022-09-29T18:26:12.440Z,14.00
2022-09-29T18:28:48.406Z,12.93
2022-09-29T18:31:28.597Z,13.23
2022-09-29T18:34:00.453Z,14.10
2022-09-29T18:36:32.381Z,13.20
2022-09-29T18:39:04.343Z,13.80
2022-09-29T18:41:36.311Z,13.33
2022-09-29T18:44:16.730Z,13.47
2022-09-29T18:46:48.623Z,12.73
2022-09-29T18:49:20.688Z,11.77
2022-09-29T18:51:52.814Z,11.73
2022-09-29T18:54:24.724Z,11.93
2022-09-29T18:56:56.633Z,12.33
2022-09-29T18:59:28.634Z,11.47
2022-09-29T19:02:00.567Z,10.60
2022-09-29T19:04:32.690Z,9.90
2022-09-29T19:07:06.408Z,10.07
2022-09-29T19:09:39.213Z,9.60
2022-09-29T19:12:11.621Z,10.90
2022-09-29T19:14:45.857Z,9.10
2022-09-29T19:17:17.773Z,9.03
2022-09-29T19:19:50.436Z,9.20
2022-09-29T19:22:24.469Z,8.20
2022-09-29T19:24:56.377Z,8.03
2022-09-29T19:27:28.398Z,8.03
2022-09-29T19:30:03.460Z,8.00
2022-09-29T19:32:36.288Z,7.97
2022-09-29T19:35:10.352Z,7.20
2022-09-29T19:37:42.332Z,6.60
2022-09-29T19:40:19.423Z,6.17
2022-09-29T19:42:51.585Z,6.70
2022-09-29T19:45:23.597Z,6.23
2022-09-29T19:47:57.273Z,7.53
2022-09-29T19:50:47.950Z,6.90
2022-09-29T19:53:19.787Z,6.03
2022-09-29T19:55:52.520Z,5.50
2022-09-29T19:58:24.605Z,4.40
2022-09-29T20:00:57.576Z,4.60
2022-09-29T20:03:29.975Z,4.27
2022-09-29T20:06:04.851Z,4.43
2022-09-29T20:08:36.932Z,4.10
2022-09-29T20:11:10.945Z,4.20
2022-09-29T20:13:43.825Z,3.80
2022-09-29T20:16:15.776Z,4.30
2022-09-29T20:18:48.963Z,4.47
2022-09-29T20:21:21.495Z,4.80
2022-09-29T20:23:53.566Z,4.83
2022-09-29T20:26:25.973Z,6.10
2022-09-29T20:28:58.843Z,5.20
2022-09-29T20:31:32.029Z,5.10
2022-09-29T20:34:05.587Z,4.93
2022-09-29T20:36:37.488Z,5.23
2022-09-29T20:39:10.391Z,5.20
2022-09-29T20:41:43.793Z,5.23
2022-09-29T20:44:19.961Z,4.70
2022-09-29T20:46:53.429Z,4.40
2022-09-29T20:49:26.119Z,4.60
2022-09-29T20:51:59.314Z,4.10
2022-09-29T20:54:31.336Z,4.30
2022-09-29T20:57:03.492Z,4.00
2022-09-29T20:59:36.565Z,4.33
2022-09-29T21:02:12.997Z,4.00
2022-09-29T21:04:45.227Z,4.90
2022-09-29T21:07:35.712Z,4.23
2022-09-29T21:10:08.111Z,4.47
2022-09-29T21:12:40.117Z,4.00
2022-09-29T21:15:11.986Z,4.73
2022-09-29T21:17:43.918Z,5.03
2022-09-29T21:20:17.235Z,5.20
2022-09-29T21:22:50.507Z,6.90
2022-09-29T21:25:22.481Z,6.70
2022-09-29T21:27:54.409Z,6.17
2022-09-29T21:30:26.323Z,6.13
2022-09-29T21:32:58.428Z,6.50
2022-09-29T21:35:31.206Z,5.43
2022-09-29T21:38:03.238Z,5.00
2022-09-29T21:40:35.178Z,5.47
2022-09-29T21:43:07.024Z,5.47
2022-09-29T21:45:39.030Z,5.67
2022-09-29T21:48:11.701Z,5.03
2022-09-29T21:50:43.713Z,4.90
2022-09-29T21:53:15.693Z,5.00
2022-09-29T21:55:47.592Z,4.50
2022-09-29T21:58:19.466Z,5.40
2022-09-29T22:00:51.762Z,5.70
2022-09-29T22:03:31.860Z,4.90
2022-09-29T22:06:05.360Z,5.10
2022-09-29T22:08:37.302Z,4.83
2022-09-29T22:11:09.809Z,4.50
2022-09-29T22:13:42.787Z,4.53
2022-09-29T22:16:17.436Z,4.97
2022-09-29T22:19:05.841Z,4.43
2022-09-29T22:21:44.146Z,5.73
2022-09-29T22:24:19.379Z,4.40
2022-09-29T22:26:54.205Z,4.70
2022-09-29T22:29:26.237Z,5.03
2022-09-29T22:31:58.337Z,5.00
2022-09-29T22:34:30.365Z,4.97
2022-09-29T22:37:02.405Z,4.90
2022-09-29T22:39:35.130Z,5.20
2022-09-29T22:42:07.114Z,5.30
2022-09-29T22:44:39.423Z,5.13
2022-09-29T22:47:11.609Z,4.73
2022-09-29T22:49:43.557Z,4.90
2022-09-29T22:52:15.558Z,5.20
2022-09-29T22:54:47.767Z,5.30
2022-09-29T22:57:19.733Z,5.53
2022-09-29T22:59:51.715Z,5.97
2022-09-29T23:02:23.753Z,5.97
2022-09-29T23:04:58.042Z,6.20
2022-09-29T23:07:30.109Z,6.03
2022-09-29T23:10:02.034Z,6.30
2022-09-29T23:12:34.082Z,6.10
2022-09-29T23:15:06.470Z,6.97
2022-09-29T23:17:38.434Z,5.70
2022-09-29T23:20:10.534Z,6.10
2022-09-29T23:22:42.397Z,7.90
2022-09-29T23:25:14.391Z,6.40
2022-09-29T23:27:46.273Z,6.10
2022-09-29T23:30:18.095Z,7.60
2022-09-29T23:32:50.333Z,6.63
2022-09-29T23:35:22.147Z,6.23
2022-09-29T23:38:12.718Z,7.33
2022-09-29T23:40:44.673Z,6.07
2022-09-29T23:43:16.661Z,7.27
2022-09-29T23:45:48.623Z,6.73
2022-09-29T23:48:22.324Z,7.50
2022-09-29T23:50:54.180Z,7.67
2022-09-29T23:53:26.206Z,7.50
2022-09-29T23:55:58.152Z,7.13
2022-09-29T23:58:30.060Z,8.40
